METAR LOCAUX

2022/06/30 05:00 LFST 300500Z AUTO VRB02KT CAVOK 19/16 Q1012 NOSIG
2022/06/30 04:50 EDSB 300450Z 00000KT CAVOK 17/15 Q1012
2022/06/30 05:00 LFGA 300500Z AUTO VRB03KT CAVOK 20/14 Q1012
www.noaa.gov

Ne pas utiliser pour préparer ou effectuer un vol: Utilisez la documentation officielle disponible sur aviation.meteo.fr (Aéroweb)


"Le soleil du matin ne dure pas forcément toute la journée."

Animation satellite IR

Meteociel.fr

"Derrière chaque nuage se cache le ciel bleu."

Radar pluie

Infoclimat.fr

"Si tu veux l’arc-en-ciel, tu dois supporter la pluie."
Dolly Parton

Nébulosité (octas)

Meteociel.fr

"Le soleil est souvent obscurci par les nuages et la raison par les passions."
Démophile

Impacts de foudre

www.meteo60.fr

"Celui que frappe la foudre n'entend pas le tonnerre."

Vigilance météo

vigilance-meteo.fr

"Tout nuage n'enfante pas une tempête."
William Shakespeare

TAF locaux

2022/06/29 18:21 TAF LFST 291700Z 2918/3018 VRB03KT CAVOK PROB30 TEMPO 3002/3005 4000 MIFG BECMG 3014/3016 FEW060CB TEMPO 3016/3018 4000 SHRA PROB40 TEMPO 3017/3018 VRB25G45KT 1200 TSRAGS BKN040 SCT050CB
2022/06/29 18:27 TAF EDSB 291700Z 2918/3018 VRB03KT CAVOK BECMG 3008/3010 35005KT BECMG 3013/3016 25006KT
www.noaa.gov

Ne pas utiliser pour préparer ou effectuer un vol: Utilisez la documentation officielle disponible sur aviation.meteo.fr (Aéroweb)


"Les jours où le ciel est gris, le soleil n'a pas disparu à tout jamais."
Arnaud Desjardins

Prévisions 7 jours


Meteoblue.com

"Quand les crapauds chantent, le beau temps s'avance !"